sensor_id;sensor_type;location;lat;lon;timestamp;P1;durP1;ratioP1;P2;durP2;ratioP2
69381;SDS011;56560;50.692;12.844;2023-05-13T00:00:49;16.10;;;6.87;;
69381;SDS011;56560;50.692;12.844;2023-05-13T00:03:15;13.82;;;6.72;;
69381;SDS011;56560;50.692;12.844;2023-05-13T00:05:41;13.23;;;6.30;;
69381;SDS011;56560;50.692;12.844;2023-05-13T00:08:06;15.15;;;6.93;;
69381;SDS011;56560;50.692;12.844;2023-05-13T00:10:32;14.30;;;6.50;;
69381;SDS011;56560;50.692;12.844;2023-05-13T00:12:58;14.85;;;6.18;;
69381;SDS011;56560;50.692;12.844;2023-05-13T00:15:24;13.85;;;6.97;;
69381;SDS011;56560;50.692;12.844;2023-05-13T00:17:50;15.47;;;6.90;;
69381;SDS011;56560;50.692;12.844;2023-05-13T00:20:16;16.15;;;6.68;;
69381;SDS011;56560;50.692;12.844;2023-05-13T00:22:42;13.73;;;6.67;;
69381;SDS011;56560;50.692;12.844;2023-05-13T00:25:07;13.27;;;6.65;;
69381;SDS011;56560;50.692;12.844;2023-05-13T00:27:33;14.97;;;7.10;;
69381;SDS011;56560;50.692;12.844;2023-05-13T00:29:59;13.40;;;6.70;;
69381;SDS011;56560;50.692;12.844;2023-05-13T00:32:25;12.53;;;6.20;;
69381;SDS011;56560;50.692;12.844;2023-05-13T00:34:51;15.52;;;6.88;;
69381;SDS011;56560;50.692;12.844;2023-05-13T00:37:17;13.43;;;6.32;;
69381;SDS011;56560;50.692;12.844;2023-05-13T00:39:43;13.93;;;6.00;;
69381;SDS011;56560;50.692;12.844;2023-05-13T00:42:09;14.07;;;6.00;;
69381;SDS011;56560;50.692;12.844;2023-05-13T00:44:36;13.15;;;6.38;;
69381;SDS011;56560;50.692;12.844;2023-05-13T00:47:02;15.00;;;6.63;;
69381;SDS011;56560;50.692;12.844;2023-05-13T00:49:31;14.30;;;6.33;;
69381;SDS011;56560;50.692;12.844;2023-05-13T00:51:57;12.73;;;6.35;;
69381;SDS011;56560;50.692;12.844;2023-05-13T00:54:23;15.25;;;6.85;;
69381;SDS011;56560;50.692;12.844;2023-05-13T00:56:49;14.77;;;6.85;;
69381;SDS011;56560;50.692;12.844;2023-05-13T00:59:18;17.17;;;6.78;;
69381;SDS011;56560;50.692;12.844;2023-05-13T01:04:33;13.00;;;6.47;;
69381;SDS011;56560;50.692;12.844;2023-05-13T01:10:04;13.60;;;6.28;;
69381;SDS011;56560;50.692;12.844;2023-05-13T01:12:40;15.50;;;6.72;;
69381;SDS011;56560;50.692;12.844;2023-05-13T01:15:09;12.73;;;6.18;;
69381;SDS011;56560;50.692;12.844;2023-05-13T01:17:46;12.98;;;6.10;;
69381;SDS011;56560;50.692;12.844;2023-05-13T01:20:21;13.32;;;6.18;;
69381;SDS011;56560;50.692;12.844;2023-05-13T01:22:48;15.73;;;6.65;;
69381;SDS011;56560;50.692;12.844;2023-05-13T01:25:14;13.32;;;6.25;;
69381;SDS011;56560;50.692;12.844;2023-05-13T01:27:40;14.43;;;6.38;;
69381;SDS011;56560;50.692;12.844;2023-05-13T01:30:06;13.17;;;6.50;;
69381;SDS011;56560;50.692;12.844;2023-05-13T01:32:34;14.20;;;6.80;;
69381;SDS011;56560;50.692;12.844;2023-05-13T01:35:01;17.20;;;7.60;;
69381;SDS011;56560;50.692;12.844;2023-05-13T01:37:27;17.00;;;7.45;;
69381;SDS011;56560;50.692;12.844;2023-05-13T01:39:54;16.53;;;7.40;;
69381;SDS011;56560;50.692;12.844;2023-05-13T01:42:20;15.63;;;7.00;;
69381;SDS011;56560;50.692;12.844;2023-05-13T01:44:47;16.27;;;6.63;;
69381;SDS011;56560;50.692;12.844;2023-05-13T01:47:12;13.27;;;6.20;;
69381;SDS011;56560;50.692;12.844;2023-05-13T01:49:38;14.43;;;6.60;;
69381;SDS011;56560;50.692;12.844;2023-05-13T01:52:04;16.07;;;7.27;;
69381;SDS011;56560;50.692;12.844;2023-05-13T01:54:29;16.52;;;7.25;;
69381;SDS011;56560;50.692;12.844;2023-05-13T01:56:55;13.67;;;6.83;;
69381;SDS011;56560;50.692;12.844;2023-05-13T01:59:21;14.27;;;6.93;;
69381;SDS011;56560;50.692;12.844;2023-05-13T02:01:47;14.77;;;6.40;;
69381;SDS011;56560;50.692;12.844;2023-05-13T02:04:13;14.57;;;6.57;;
69381;SDS011;56560;50.692;12.844;2023-05-13T02:06:39;13.57;;;6.47;;
69381;SDS011;56560;50.692;12.844;2023-05-13T02:09:05;14.45;;;6.60;;
69381;SDS011;56560;50.692;12.844;2023-05-13T02:11:31;15.50;;;6.40;;
69381;SDS011;56560;50.692;12.844;2023-05-13T02:13:56;12.48;;;6.18;;
69381;SDS011;56560;50.692;12.844;2023-05-13T02:16:22;12.60;;;5.93;;
69381;SDS011;56560;50.692;12.844;2023-05-13T02:18:47;13.10;;;5.77;;
69381;SDS011;56560;50.692;12.844;2023-05-13T02:21:13;12.63;;;5.80;;
69381;SDS011;56560;50.692;12.844;2023-05-13T02:23:39;12.27;;;5.90;;
69381;SDS011;56560;50.692;12.844;2023-05-13T02:26:04;13.02;;;5.90;;
69381;SDS011;56560;50.692;12.844;2023-05-13T02:28:30;14.23;;;5.97;;
69381;SDS011;56560;50.692;12.844;2023-05-13T02:30:55;12.17;;;5.70;;
69381;SDS011;56560;50.692;12.844;2023-05-13T02:33:21;13.55;;;6.32;;
69381;SDS011;56560;50.692;12.844;2023-05-13T02:35:47;12.83;;;5.50;;
69381;SDS011;56560;50.692;12.844;2023-05-13T02:38:13;12.25;;;5.70;;
69381;SDS011;56560;50.692;12.844;2023-05-13T02:40:39;18.08;;;6.30;;
69381;SDS011;56560;50.692;12.844;2023-05-13T02:43:04;12.37;;;5.50;;
69381;SDS011;56560;50.692;12.844;2023-05-13T02:45:30;14.48;;;6.00;;
69381;SDS011;56560;50.692;12.844;2023-05-13T02:47:56;14.45;;;5.72;;
69381;SDS011;56560;50.692;12.844;2023-05-13T02:50:21;13.53;;;5.93;;
69381;SDS011;56560;50.692;12.844;2023-05-13T02:52:47;14.35;;;6.18;;
69381;SDS011;56560;50.692;12.844;2023-05-13T02:55:13;14.83;;;6.00;;
69381;SDS011;56560;50.692;12.844;2023-05-13T02:57:38;13.07;;;6.07;;
69381;SDS011;56560;50.692;12.844;2023-05-13T03:00:04;14.60;;;6.40;;
69381;SDS011;56560;50.692;12.844;2023-05-13T03:02:30;15.27;;;5.70;;
69381;SDS011;56560;50.692;12.844;2023-05-13T03:04:57;15.18;;;6.10;;
69381;SDS011;56560;50.692;12.844;2023-05-13T03:07:23;13.13;;;5.93;;
69381;SDS011;56560;50.692;12.844;2023-05-13T03:09:48;14.30;;;6.50;;
69381;SDS011;56560;50.692;12.844;2023-05-13T03:12:14;15.10;;;6.30;;
69381;SDS011;56560;50.692;12.844;2023-05-13T03:14:40;15.13;;;6.10;;
69381;SDS011;56560;50.692;12.844;2023-05-13T03:17:08;13.40;;;6.55;;
69381;SDS011;56560;50.692;12.844;2023-05-13T03:19:35;15.05;;;6.05;;
69381;SDS011;56560;50.692;12.844;2023-05-13T03:22:01;14.05;;;6.25;;
69381;SDS011;56560;50.692;12.844;2023-05-13T03:24:27;12.70;;;6.03;;
69381;SDS011;56560;50.692;12.844;2023-05-13T03:26:53;15.63;;;6.07;;
69381;SDS011;56560;50.692;12.844;2023-05-13T03:29:19;12.65;;;5.40;;
69381;SDS011;56560;50.692;12.844;2023-05-13T03:31:45;13.33;;;5.87;;
69381;SDS011;56560;50.692;12.844;2023-05-13T03:34:11;14.35;;;5.88;;
69381;SDS011;56560;50.692;12.844;2023-05-13T03:36:36;13.37;;;6.00;;
69381;SDS011;56560;50.692;12.844;2023-05-13T03:39:02;13.90;;;6.10;;
69381;SDS011;56560;50.692;12.844;2023-05-13T03:41:28;13.75;;;6.68;;
69381;SDS011;56560;50.692;12.844;2023-05-13T03:43:53;13.93;;;6.23;;
69381;SDS011;56560;50.692;12.844;2023-05-13T03:46:19;15.38;;;6.00;;
69381;SDS011;56560;50.692;12.844;2023-05-13T03:48:45;15.77;;;6.55;;
69381;SDS011;56560;50.692;12.844;2023-05-13T03:51:11;12.70;;;5.43;;
69381;SDS011;56560;50.692;12.844;2023-05-13T03:53:37;16.83;;;5.80;;
69381;SDS011;56560;50.692;12.844;2023-05-13T03:56:02;14.82;;;6.05;;
69381;SDS011;56560;50.692;12.844;2023-05-13T03:58:29;12.80;;;6.17;;
69381;SDS011;56560;50.692;12.844;2023-05-13T04:00:55;13.88;;;6.13;;
69381;SDS011;56560;50.692;12.844;2023-05-13T04:03:21;15.68;;;5.90;;
69381;SDS011;56560;50.692;12.844;2023-05-13T04:05:47;14.27;;;6.03;;
69381;SDS011;56560;50.692;12.844;2023-05-13T04:08:13;12.82;;;5.80;;
69381;SDS011;56560;50.692;12.844;2023-05-13T04:10:39;13.00;;;5.97;;
69381;SDS011;56560;50.692;12.844;2023-05-13T04:13:05;15.85;;;5.80;;
69381;SDS011;56560;50.692;12.844;2023-05-13T04:15:31;13.30;;;6.13;;
69381;SDS011;56560;50.692;12.844;2023-05-13T04:17:57;12.90;;;5.90;;
69381;SDS011;56560;50.692;12.844;2023-05-13T04:20:24;13.90;;;5.97;;
69381;SDS011;56560;50.692;12.844;2023-05-13T04:22:50;13.15;;;5.60;;
69381;SDS011;56560;50.692;12.844;2023-05-13T04:25:16;12.03;;;5.63;;
69381;SDS011;56560;50.692;12.844;2023-05-13T04:27:42;13.85;;;6.00;;
69381;SDS011;56560;50.692;12.844;2023-05-13T04:30:08;15.13;;;6.05;;
69381;SDS011;56560;50.692;12.844;2023-05-13T04:32:34;14.03;;;5.93;;
69381;SDS011;56560;50.692;12.844;2023-05-13T04:35:00;14.27;;;5.80;;
69381;SDS011;56560;50.692;12.844;2023-05-13T04:37:25;13.07;;;6.07;;
69381;SDS011;56560;50.692;12.844;2023-05-13T04:39:51;15.30;;;5.90;;
69381;SDS011;56560;50.692;12.844;2023-05-13T04:42:17;13.70;;;5.90;;
69381;SDS011;56560;50.692;12.844;2023-05-13T04:44:42;13.57;;;5.50;;
69381;SDS011;56560;50.692;12.844;2023-05-13T04:47:08;12.55;;;5.60;;
69381;SDS011;56560;50.692;12.844;2023-05-13T04:49:34;12.43;;;6.10;;
69381;SDS011;56560;50.692;12.844;2023-05-13T04:52:00;13.75;;;5.95;;
69381;SDS011;56560;50.692;12.844;2023-05-13T04:54:27;14.05;;;5.90;;
69381;SDS011;56560;50.692;12.844;2023-05-13T04:56:53;15.82;;;6.18;;
69381;SDS011;56560;50.692;12.844;2023-05-13T04:59:19;14.40;;;5.82;;
69381;SDS011;56560;50.692;12.844;2023-05-13T05:01:44;14.03;;;5.90;;
69381;SDS011;56560;50.692;12.844;2023-05-13T05:04:10;13.93;;;5.90;;
69381;SDS011;56560;50.692;12.844;2023-05-13T05:06:36;12.75;;;5.80;;
69381;SDS011;56560;50.692;12.844;2023-05-13T05:09:02;12.68;;;5.82;;
69381;SDS011;56560;50.692;12.844;2023-05-13T05:11:28;11.93;;;5.40;;
69381;SDS011;56560;50.692;12.844;2023-05-13T05:13:54;11.73;;;5.40;;
69381;SDS011;56560;50.692;12.844;2023-05-13T05:16:20;12.13;;;5.78;;
69381;SDS011;56560;50.692;12.844;2023-05-13T05:18:46;13.93;;;5.60;;
69381;SDS011;56560;50.692;12.844;2023-05-13T05:21:11;13.95;;;5.50;;
69381;SDS011;56560;50.692;12.844;2023-05-13T05:23:37;11.80;;;5.50;;
69381;SDS011;56560;50.692;12.844;2023-05-13T05:26:03;12.40;;;5.80;;
69381;SDS011;56560;50.692;12.844;2023-05-13T05:28:29;11.50;;;5.63;;
69381;SDS011;56560;50.692;12.844;2023-05-13T05:30:54;12.80;;;5.30;;
69381;SDS011;56560;50.692;12.844;2023-05-13T05:33:20;11.47;;;5.57;;
69381;SDS011;56560;50.692;12.844;2023-05-13T05:35:46;11.15;;;5.35;;
69381;SDS011;56560;50.692;12.844;2023-05-13T05:38:12;10.68;;;5.00;;
69381;SDS011;56560;50.692;12.844;2023-05-13T05:40:42;11.27;;;4.97;;
69381;SDS011;56560;50.692;12.844;2023-05-13T05:43:08;11.20;;;4.90;;
69381;SDS011;56560;50.692;12.844;2023-05-13T05:45:38;13.30;;;5.30;;
69381;SDS011;56560;50.692;12.844;2023-05-13T05:48:04;10.37;;;4.87;;
69381;SDS011;56560;50.692;12.844;2023-05-13T05:50:30;12.10;;;4.60;;
69381;SDS011;56560;50.692;12.844;2023-05-13T05:52:57;10.32;;;4.53;;
69381;SDS011;56560;50.692;12.844;2023-05-13T05:55:23;11.55;;;4.97;;
69381;SDS011;56560;50.692;12.844;2023-05-13T05:57:56;14.70;;;6.88;;
69381;SDS011;56560;50.692;12.844;2023-05-13T06:00:21;10.13;;;4.50;;
69381;SDS011;56560;50.692;12.844;2023-05-13T06:02:48;10.70;;;4.55;;
69381;SDS011;56560;50.692;12.844;2023-05-13T06:05:14;12.25;;;5.22;;
69381;SDS011;56560;50.692;12.844;2023-05-13T06:07:40;9.63;;;4.30;;
69381;SDS011;56560;50.692;12.844;2023-05-13T06:10:05;10.57;;;4.60;;
69381;SDS011;56560;50.692;12.844;2023-05-13T06:12:31;10.40;;;4.95;;
69381;SDS011;56560;50.692;12.844;2023-05-13T06:14:57;12.07;;;4.93;;
69381;SDS011;56560;50.692;12.844;2023-05-13T06:17:24;10.57;;;4.60;;
69381;SDS011;56560;50.692;12.844;2023-05-13T06:19:49;10.50;;;4.63;;
69381;SDS011;56560;50.692;12.844;2023-05-13T06:22:15;10.20;;;4.53;;
69381;SDS011;56560;50.692;12.844;2023-05-13T06:24:41;10.27;;;4.90;;
69381;SDS011;56560;50.692;12.844;2023-05-13T06:27:11;10.00;;;4.80;;
69381;SDS011;56560;50.692;12.844;2023-05-13T06:29:37;10.35;;;4.68;;
69381;SDS011;56560;50.692;12.844;2023-05-13T06:32:03;10.73;;;4.90;;
69381;SDS011;56560;50.692;12.844;2023-05-13T06:34:29;10.70;;;4.80;;
69381;SDS011;56560;50.692;12.844;2023-05-13T06:36:55;11.50;;;5.20;;
69381;SDS011;56560;50.692;12.844;2023-05-13T06:39:21;9.75;;;4.70;;
69381;SDS011;56560;50.692;12.844;2023-05-13T06:41:46;10.67;;;4.90;;
69381;SDS011;56560;50.692;12.844;2023-05-13T06:44:12;9.63;;;4.83;;
69381;SDS011;56560;50.692;12.844;2023-05-13T06:46:37;9.57;;;4.70;;
69381;SDS011;56560;50.692;12.844;2023-05-13T06:49:03;9.63;;;4.60;;
69381;SDS011;56560;50.692;12.844;2023-05-13T06:51:28;9.68;;;3.95;;
69381;SDS011;56560;50.692;12.844;2023-05-13T06:53:56;8.48;;;4.05;;
69381;SDS011;56560;50.692;12.844;2023-05-13T06:56:22;10.18;;;4.30;;
69381;SDS011;56560;50.692;12.844;2023-05-13T06:58:48;10.60;;;4.70;;
69381;SDS011;56560;50.692;12.844;2023-05-13T07:01:14;11.07;;;4.90;;
69381;SDS011;56560;50.692;12.844;2023-05-13T07:03:43;9.68;;;4.40;;
69381;SDS011;56560;50.692;12.844;2023-05-13T07:06:09;11.43;;;4.38;;
69381;SDS011;56560;50.692;12.844;2023-05-13T07:08:35;9.32;;;4.53;;
69381;SDS011;56560;50.692;12.844;2023-05-13T07:11:01;9.35;;;4.30;;
69381;SDS011;56560;50.692;12.844;2023-05-13T07:13:27;10.85;;;4.43;;
69381;SDS011;56560;50.692;12.844;2023-05-13T07:15:54;9.93;;;4.70;;
69381;SDS011;56560;50.692;12.844;2023-05-13T07:18:19;9.57;;;4.65;;
69381;SDS011;56560;50.692;12.844;2023-05-13T07:20:45;9.50;;;4.30;;
69381;SDS011;56560;50.692;12.844;2023-05-13T07:23:10;10.35;;;4.38;;
69381;SDS011;56560;50.692;12.844;2023-05-13T07:25:36;10.13;;;4.50;;
69381;SDS011;56560;50.692;12.844;2023-05-13T07:28:02;10.77;;;4.55;;
69381;SDS011;56560;50.692;12.844;2023-05-13T07:30:28;10.63;;;5.10;;
69381;SDS011;56560;50.692;12.844;2023-05-13T07:32:54;9.93;;;4.70;;
69381;SDS011;56560;50.692;12.844;2023-05-13T07:35:19;9.98;;;4.90;;
69381;SDS011;56560;50.692;12.844;2023-05-13T07:37:45;10.93;;;5.03;;
69381;SDS011;56560;50.692;12.844;2023-05-13T07:40:11;9.30;;;4.43;;
69381;SDS011;56560;50.692;12.844;2023-05-13T07:42:38;10.23;;;4.45;;
69381;SDS011;56560;50.692;12.844;2023-05-13T07:45:04;10.47;;;4.80;;
69381;SDS011;56560;50.692;12.844;2023-05-13T07:47:31;9.27;;;4.68;;
69381;SDS011;56560;50.692;12.844;2023-05-13T07:49:57;9.98;;;4.60;;
69381;SDS011;56560;50.692;12.844;2023-05-13T07:52:23;10.35;;;4.18;;
69381;SDS011;56560;50.692;12.844;2023-05-13T07:54:49;8.80;;;3.70;;
69381;SDS011;56560;50.692;12.844;2023-05-13T07:57:15;9.40;;;4.20;;
69381;SDS011;56560;50.692;12.844;2023-05-13T07:59:40;8.73;;;4.00;;
69381;SDS011;56560;50.692;12.844;2023-05-13T08:02:06;9.25;;;3.78;;
69381;SDS011;56560;50.692;12.844;2023-05-13T08:04:32;9.10;;;3.80;;
69381;SDS011;56560;50.692;12.844;2023-05-13T08:07:00;6.90;;;2.83;;
69381;SDS011;56560;50.692;12.844;2023-05-13T08:09:25;8.80;;;3.03;;
69381;SDS011;56560;50.692;12.844;2023-05-13T08:11:51;12.00;;;4.20;;
69381;SDS011;56560;50.692;12.844;2023-05-13T08:14:18;6.75;;;3.10;;
69381;SDS011;56560;50.692;12.844;2023-05-13T08:16:44;7.20;;;2.83;;
69381;SDS011;56560;50.692;12.844;2023-05-13T08:19:10;6.88;;;3.03;;
69381;SDS011;56560;50.692;12.844;2023-05-13T08:21:38;4.85;;;2.25;;
69381;SDS011;56560;50.692;12.844;2023-05-13T08:24:03;10.23;;;3.10;;
69381;SDS011;56560;50.692;12.844;2023-05-13T08:26:30;5.63;;;2.70;;
69381;SDS011;56560;50.692;12.844;2023-05-13T08:28:55;5.33;;;2.57;;
69381;SDS011;56560;50.692;12.844;2023-05-13T08:31:21;6.57;;;2.53;;
69381;SDS011;56560;50.692;12.844;2023-05-13T08:33:49;5.57;;;2.63;;
69381;SDS011;56560;50.692;12.844;2023-05-13T08:36:15;6.53;;;2.90;;
69381;SDS011;56560;50.692;12.844;2023-05-13T08:38:41;7.17;;;3.13;;
69381;SDS011;56560;50.692;12.844;2023-05-13T08:41:08;6.75;;;2.70;;
69381;SDS011;56560;50.692;12.844;2023-05-13T08:43:37;5.68;;;2.80;;
69381;SDS011;56560;50.692;12.844;2023-05-13T08:46:03;6.88;;;3.10;;
69381;SDS011;56560;50.692;12.844;2023-05-13T08:48:33;6.57;;;2.80;;
69381;SDS011;56560;50.692;12.844;2023-05-13T08:50:59;7.53;;;2.80;;
69381;SDS011;56560;50.692;12.844;2023-05-13T08:53:28;7.10;;;2.90;;
69381;SDS011;56560;50.692;12.844;2023-05-13T08:55:55;8.75;;;3.38;;
69381;SDS011;56560;50.692;12.844;2023-05-13T08:58:21;6.90;;;3.20;;
69381;SDS011;56560;50.692;12.844;2023-05-13T09:00:47;7.17;;;3.00;;
69381;SDS011;56560;50.692;12.844;2023-05-13T09:03:13;8.75;;;3.50;;
69381;SDS011;56560;50.692;12.844;2023-05-13T09:05:43;7.78;;;3.50;;
69381;SDS011;56560;50.692;12.844;2023-05-13T09:08:13;8.43;;;3.33;;
69381;SDS011;56560;50.692;12.844;2023-05-13T09:10:39;6.85;;;2.97;;
69381;SDS011;56560;50.692;12.844;2023-05-13T09:13:05;7.43;;;3.28;;
69381;SDS011;56560;50.692;12.844;2023-05-13T09:15:31;7.80;;;3.30;;
69381;SDS011;56560;50.692;12.844;2023-05-13T09:18:02;7.55;;;3.22;;
69381;SDS011;56560;50.692;12.844;2023-05-13T09:20:29;7.75;;;3.20;;
69381;SDS011;56560;50.692;12.844;2023-05-13T09:23:00;7.85;;;3.38;;
69381;SDS011;56560;50.692;12.844;2023-05-13T09:25:33;9.85;;;3.40;;
69381;SDS011;56560;50.692;12.844;2023-05-13T09:27:59;7.75;;;3.42;;
69381;SDS011;56560;50.692;12.844;2023-05-13T09:30:36;8.77;;;3.63;;
69381;SDS011;56560;50.692;12.844;2023-05-13T09:35:30;8.85;;;3.28;;
69381;SDS011;56560;50.692;12.844;2023-05-13T09:37:56;7.15;;;3.30;;
69381;SDS011;56560;50.692;12.844;2023-05-13T09:40:22;8.32;;;3.50;;
69381;SDS011;56560;50.692;12.844;2023-05-13T09:42:48;8.50;;;3.60;;
69381;SDS011;56560;50.692;12.844;2023-05-13T09:45:14;8.88;;;3.58;;
69381;SDS011;56560;50.692;12.844;2023-05-13T09:47:41;7.90;;;3.85;;
69381;SDS011;56560;50.692;12.844;2023-05-13T09:50:08;7.55;;;3.60;;
69381;SDS011;56560;50.692;12.844;2023-05-13T09:52:36;8.43;;;3.78;;
69381;SDS011;56560;50.692;12.844;2023-05-13T09:55:02;8.70;;;3.50;;
69381;SDS011;56560;50.692;12.844;2023-05-13T09:57:32;8.63;;;3.60;;
69381;SDS011;56560;50.692;12.844;2023-05-13T10:00:01;8.68;;;3.70;;
69381;SDS011;56560;50.692;12.844;2023-05-13T10:02:33;7.60;;;3.50;;
69381;SDS011;56560;50.692;12.844;2023-05-13T10:04:59;9.73;;;3.75;;
69381;SDS011;56560;50.692;12.844;2023-05-13T10:07:26;8.45;;;3.80;;
69381;SDS011;56560;50.692;12.844;2023-05-13T10:09:52;9.25;;;4.20;;
69381;SDS011;56560;50.692;12.844;2023-05-13T10:12:23;9.25;;;3.80;;
69381;SDS011;56560;50.692;12.844;2023-05-13T10:14:51;8.93;;;3.88;;
69381;SDS011;56560;50.692;12.844;2023-05-13T10:17:18;10.93;;;4.80;;
69381;SDS011;56560;50.692;12.844;2023-05-13T10:19:45;8.40;;;4.20;;
69381;SDS011;56560;50.692;12.844;2023-05-13T10:22:13;9.95;;;4.18;;
69381;SDS011;56560;50.692;12.844;2023-05-13T10:24:40;11.90;;;4.57;;
69381;SDS011;56560;50.692;12.844;2023-05-13T10:27:07;9.75;;;4.97;;
69381;SDS011;56560;50.692;12.844;2023-05-13T10:29:36;11.05;;;5.30;;
69381;SDS011;56560;50.692;12.844;2023-05-13T10:32:02;10.80;;;5.75;;
69381;SDS011;56560;50.692;12.844;2023-05-13T10:34:29;11.57;;;5.90;;
69381;SDS011;56560;50.692;12.844;2023-05-13T10:39:55;11.05;;;5.82;;
69381;SDS011;56560;50.692;12.844;2023-05-13T10:45:47;10.60;;;6.00;;
69381;SDS011;56560;50.692;12.844;2023-05-13T10:48:15;10.75;;;6.10;;
69381;SDS011;56560;50.692;12.844;2023-05-13T10:53:19;9.90;;;6.15;;
69381;SDS011;56560;50.692;12.844;2023-05-13T10:55:52;12.15;;;5.88;;
69381;SDS011;56560;50.692;12.844;2023-05-13T10:58:30;10.53;;;6.10;;
69381;SDS011;56560;50.692;12.844;2023-05-13T11:01:13;11.15;;;6.53;;
69381;SDS011;56560;50.692;12.844;2023-05-13T11:03:50;11.57;;;6.40;;
69381;SDS011;56560;50.692;12.844;2023-05-13T11:06:19;10.32;;;6.18;;
69381;SDS011;56560;50.692;12.844;2023-05-13T11:08:47;10.65;;;6.43;;
69381;SDS011;56560;50.692;12.844;2023-05-13T11:13:54;12.27;;;7.07;;
69381;SDS011;56560;50.692;12.844;2023-05-13T11:16:29;11.30;;;6.60;;
69381;SDS011;56560;50.692;12.844;2023-05-13T11:18:55;12.37;;;7.60;;
69381;SDS011;56560;50.692;12.844;2023-05-13T11:21:28;11.88;;;7.43;;
69381;SDS011;56560;50.692;12.844;2023-05-13T11:24:03;12.13;;;7.70;;
69381;SDS011;56560;50.692;12.844;2023-05-13T11:27:11;14.07;;;8.13;;
69381;SDS011;56560;50.692;12.844;2023-05-13T11:31:56;11.18;;;6.75;;
69381;SDS011;56560;50.692;12.844;2023-05-13T11:34:22;11.07;;;6.32;;
69381;SDS011;56560;50.692;12.844;2023-05-13T11:36:52;11.07;;;6.07;;
69381;SDS011;56560;50.692;12.844;2023-05-13T11:39:26;12.10;;;6.32;;
69381;SDS011;56560;50.692;12.844;2023-05-13T11:41:52;11.00;;;6.97;;
69381;SDS011;56560;50.692;12.844;2023-05-13T11:44:24;9.52;;;5.72;;
69381;SDS011;56560;50.692;12.844;2023-05-13T11:46:57;9.65;;;5.40;;
69381;SDS011;56560;50.692;12.844;2023-05-13T11:49:34;10.40;;;5.53;;
69381;SDS011;56560;50.692;12.844;2023-05-13T11:52:17;10.50;;;5.82;;
69381;SDS011;56560;50.692;12.844;2023-05-13T11:57:27;11.20;;;5.72;;
69381;SDS011;56560;50.692;12.844;2023-05-13T12:00:00;10.73;;;5.10;;
69381;SDS011;56560;50.692;12.844;2023-05-13T12:02:30;12.80;;;6.00;;
69381;SDS011;56560;50.692;12.844;2023-05-13T12:05:00;10.70;;;6.15;;
69381;SDS011;56560;50.692;12.844;2023-05-13T12:07:28;10.00;;;6.00;;
69381;SDS011;56560;50.692;12.844;2023-05-13T12:09:55;11.95;;;6.70;;
69381;SDS011;56560;50.692;12.844;2023-05-13T12:12:22;12.00;;;7.13;;
69381;SDS011;56560;50.692;12.844;2023-05-13T12:14:49;11.13;;;7.35;;
69381;SDS011;56560;50.692;12.844;2023-05-13T12:17:15;11.95;;;7.30;;
69381;SDS011;56560;50.692;12.844;2023-05-13T12:22:36;10.38;;;6.00;;
69381;SDS011;56560;50.692;12.844;2023-05-13T12:28:12;11.35;;;6.00;;
69381;SDS011;56560;50.692;12.844;2023-05-13T12:30:41;10.70;;;6.07;;
69381;SDS011;56560;50.692;12.844;2023-05-13T12:33:15;11.05;;;6.20;;
69381;SDS011;56560;50.692;12.844;2023-05-13T12:35:43;11.13;;;6.32;;
69381;SDS011;56560;50.692;12.844;2023-05-13T12:38:13;10.80;;;5.93;;
69381;SDS011;56560;50.692;12.844;2023-05-13T12:40:41;9.85;;;5.70;;
69381;SDS011;56560;50.692;12.844;2023-05-13T12:43:07;10.55;;;5.90;;
69381;SDS011;56560;50.692;12.844;2023-05-13T12:45:34;10.80;;;5.82;;
69381;SDS011;56560;50.692;12.844;2023-05-13T12:48:03;10.77;;;5.70;;
69381;SDS011;56560;50.692;12.844;2023-05-13T12:50:29;10.10;;;5.40;;
69381;SDS011;56560;50.692;12.844;2023-05-13T12:52:55;10.20;;;5.60;;
69381;SDS011;56560;50.692;12.844;2023-05-13T12:55:21;9.77;;;5.47;;
69381;SDS011;56560;50.692;12.844;2023-05-13T12:57:54;10.73;;;5.23;;
69381;SDS011;56560;50.692;12.844;2023-05-13T13:00:24;10.07;;;5.47;;
69381;SDS011;56560;50.692;12.844;2023-05-13T13:02:53;10.88;;;5.30;;
69381;SDS011;56560;50.692;12.844;2023-05-13T13:05:23;14.02;;;9.13;;
69381;SDS011;56560;50.692;12.844;2023-05-13T13:07:49;10.47;;;5.50;;
69381;SDS011;56560;50.692;12.844;2023-05-13T13:10:15;9.15;;;5.05;;
69381;SDS011;56560;50.692;12.844;2023-05-13T13:12:43;9.02;;;5.10;;
69381;SDS011;56560;50.692;12.844;2023-05-13T13:15:09;9.00;;;4.90;;
69381;SDS011;56560;50.692;12.844;2023-05-13T13:17:36;8.03;;;4.40;;
69381;SDS011;56560;50.692;12.844;2023-05-13T13:20:02;10.25;;;5.00;;
69381;SDS011;56560;50.692;12.844;2023-05-13T13:22:29;8.88;;;4.43;;
69381;SDS011;56560;50.692;12.844;2023-05-13T13:24:54;11.35;;;4.85;;
69381;SDS011;56560;50.692;12.844;2023-05-13T13:27:20;9.37;;;4.90;;
69381;SDS011;56560;50.692;12.844;2023-05-13T13:29:46;11.10;;;5.40;;
69381;SDS011;56560;50.692;12.844;2023-05-13T13:32:12;8.93;;;5.22;;
69381;SDS011;56560;50.692;12.844;2023-05-13T13:34:37;9.88;;;5.50;;
69381;SDS011;56560;50.692;12.844;2023-05-13T13:37:03;10.40;;;5.90;;
69381;SDS011;56560;50.692;12.844;2023-05-13T13:39:29;10.90;;;6.60;;
69381;SDS011;56560;50.692;12.844;2023-05-13T13:41:54;9.97;;;5.63;;
69381;SDS011;56560;50.692;12.844;2023-05-13T13:44:21;10.75;;;6.43;;
69381;SDS011;56560;50.692;12.844;2023-05-13T13:46:47;11.30;;;5.90;;
69381;SDS011;56560;50.692;12.844;2023-05-13T13:49:12;12.33;;;7.37;;
69381;SDS011;56560;50.692;12.844;2023-05-13T13:51:38;12.70;;;8.00;;
69381;SDS011;56560;50.692;12.844;2023-05-13T13:54:07;11.67;;;6.90;;
69381;SDS011;56560;50.692;12.844;2023-05-13T13:56:35;12.07;;;7.10;;
69381;SDS011;56560;50.692;12.844;2023-05-13T13:59:01;12.15;;;6.80;;
69381;SDS011;56560;50.692;12.844;2023-05-13T14:01:27;13.03;;;7.57;;
69381;SDS011;56560;50.692;12.844;2023-05-13T14:04:01;12.25;;;7.30;;
69381;SDS011;56560;50.692;12.844;2023-05-13T14:06:38;11.30;;;6.90;;
69381;SDS011;56560;50.692;12.844;2023-05-13T14:09:04;12.33;;;7.70;;
69381;SDS011;56560;50.692;12.844;2023-05-13T14:11:30;13.13;;;7.85;;
69381;SDS011;56560;50.692;12.844;2023-05-13T14:13:56;12.80;;;7.80;;
69381;SDS011;56560;50.692;12.844;2023-05-13T14:16:22;12.30;;;7.73;;
69381;SDS011;56560;50.692;12.844;2023-05-13T14:18:48;12.52;;;8.10;;
69381;SDS011;56560;50.692;12.844;2023-05-13T14:21:14;13.32;;;8.02;;
69381;SDS011;56560;50.692;12.844;2023-05-13T14:23:41;13.10;;;7.57;;
69381;SDS011;56560;50.692;12.844;2023-05-13T14:26:07;12.50;;;8.00;;
69381;SDS011;56560;50.692;12.844;2023-05-13T14:28:33;12.38;;;7.03;;
69381;SDS011;56560;50.692;12.844;2023-05-13T14:30:59;11.27;;;5.80;;
69381;SDS011;56560;50.692;12.844;2023-05-13T14:33:25;10.67;;;5.77;;
69381;SDS011;56560;50.692;12.844;2023-05-13T14:35:50;9.23;;;5.13;;
69381;SDS011;56560;50.692;12.844;2023-05-13T14:38:16;8.77;;;4.50;;
69381;SDS011;56560;50.692;12.844;2023-05-13T14:40:42;9.27;;;4.28;;
69381;SDS011;56560;50.692;12.844;2023-05-13T14:43:08;8.77;;;3.97;;
69381;SDS011;56560;50.692;12.844;2023-05-13T14:45:34;8.50;;;4.10;;
69381;SDS011;56560;50.692;12.844;2023-05-13T14:48:00;9.10;;;4.70;;
69381;SDS011;56560;50.692;12.844;2023-05-13T14:50:25;9.20;;;4.20;;
69381;SDS011;56560;50.692;12.844;2023-05-13T14:52:51;9.48;;;4.88;;
69381;SDS011;56560;50.692;12.844;2023-05-13T14:55:17;9.20;;;4.23;;